Time;durP1;ratioP1;P1;durP2;ratioP2;P2;SDS_P1;SDS_P2;PMS_P1;PMS_P2;Temp;Humidity;BMP_temperature;BMP_pressure;BME280_temperature;BME280_humidity;BME280_pressure;Samples;Min_cycle;Max_cycle;Signal;HPM_P1;HPM_P2
2021/10/26 14:55:28;;;;;;;4.00;1.38;;;;;;;;;;5047582;28;20759;-58
2021/10/26 14:57:54;;;;;;;3.40;1.30;;;;;;;;;;5047421;28;20369;-57
2021/10/26 15:00:20;;;;;;;4.00;1.30;;;;;;;;;;5053954;28;20397;-56
2021/10/26 15:02:46;;;;;;;2.92;1.20;;;;;;;;;;5045227;28;20857;-54
2021/10/26 15:05:12;;;;;;;2.25;1.10;;;;;;;;;;5029887;28;20393;-53
2021/10/26 15:07:48;;;;;;;3.10;1.38;;;;;;;;;;5047442;28;20436;-51
2021/10/26 15:10:28;;;;;;;2.40;1.20;;;;;;;;;;5059739;28;20382;-54
2021/10/26 15:12:58;;;;;;;3.20;1.15;;;;;;;;;;5045519;28;20404;-51
2021/10/26 15:15:24;;;;;;;3.97;1.50;;;;;;;;;;5033390;28;20393;-51
2021/10/26 15:17:52;;;;;;;3.67;1.30;;;;;;;;;;5047455;28;20392;-51
2021/10/26 15:20:19;;;;;;;2.75;1.27;;;;;;;;;;5041881;28;20381;-50
2021/10/26 15:22:53;;;;;;;3.40;1.50;;;;;;;;;;5047236;28;20495;-50
2021/10/26 15:33:34;;;;;;;4.68;1.40;;;;;;;;;;5043722;28;20467;-54
2021/10/26 15:36:00;;;;;;;3.33;1.20;;;;;;;;;;5054161;28;20392;-46
2021/10/26 15:38:34;;;;;;;2.70;1.13;;;;;;;;;;5058507;28;20378;-50
2021/10/26 15:41:03;;;;;;;3.40;1.50;;;;;;;;;;5026284;28;20451;-46
2021/10/26 15:43:31;;;;;;;4.50;1.87;;;;;;;;;;5051439;28;20393;-53
2021/10/26 15:45:58;;;;;;;4.82;1.63;;;;;;;;;;5054835;28;20411;-51
2021/10/26 15:48:24;;;;;;;4.00;1.60;;;;;;;;;;5060307;28;20427;-51
2021/10/26 15:50:51;;;;;;;3.63;1.45;;;;;;;;;;5064005;28;20465;-52
2021/10/26 15:53:17;;;;;;;3.42;1.60;;;;;;;;;;5062516;28;20416;-55
2021/10/26 15:55:46;;;;;;;6.10;2.03;;;;;;;;;;5066863;28;20396;-53
2021/10/26 15:58:13;;;;;;;3.33;1.83;;;;;;;;;;5062398;28;20689;-54
2021/10/26 16:00:39;;;;;;;3.97;1.90;;;;;;;;;;5057808;28;20451;-54
2021/10/26 16:03:05;;;;;;;5.53;2.08;;;;;;;;;;5057214;28;20381;-52
2021/10/26 16:05:34;;;;;;;3.47;1.90;;;;;;;;;;5049136;28;20381;-51
2021/10/26 16:08:04;;;;;;;3.73;1.90;;;;;;;;;;5063467;28;20391;-52
2021/10/26 16:13:06;;;;;;;4.65;2.30;;;;;;;;;;5050238;28;20384;-53
2021/10/26 16:15:34;;;;;;;4.25;2.22;;;;;;;;;;5051132;28;20436;-53
2021/10/26 16:18:05;;;;;;;5.53;2.30;;;;;;;;;;5052126;28;20437;-52
2021/10/26 16:20:32;;;;;;;4.82;2.20;;;;;;;;;;5061940;28;20562;-54
2021/10/26 16:22:58;;;;;;;3.70;1.95;;;;;;;;;;5050963;28;20377;-53
2021/10/26 16:25:27;;;;;;;4.22;2.03;;;;;;;;;;5059703;28;20875;-51
2021/10/26 16:27:53;;;;;;;4.60;2.08;;;;;;;;;;5057418;28;20489;-54
2021/10/26 16:30:19;;;;;;;4.47;2.07;;;;;;;;;;5060748;28;20847;-55
2021/10/26 16:32:51;;;;;;;4.72;1.85;;;;;;;;;;5039188;28;20387;-54
2021/10/26 16:35:18;;;;;;;4.70;2.00;;;;;;;;;;5060317;28;20368;-55
2021/10/26 16:37:48;;;;;;;3.65;1.67;;;;;;;;;;5057168;28;20374;-52
2021/10/26 16:40:14;;;;;;;3.38;1.70;;;;;;;;;;5052644;28;20887;-54
2021/10/26 16:43:04;;;;;;;4.43;1.80;;;;;;;;;;5063492;28;20414;-54
2021/10/26 16:46:25;;;;;;;4.32;1.92;;;;;;;;;;5063202;28;20456;-50
2021/10/26 16:48:15;;;;;;;4.32;1.85;;;;;;;;;;5034053;28;20381;-51
2021/10/26 16:50:45;;;;;;;5.75;2.25;;;;;;;;;;5050646;28;20846;-52
2021/10/26 16:53:11;;;;;;;4.18;1.90;;;;;;;;;;5032038;28;20378;-52
2021/10/26 16:55:37;;;;;;;5.13;2.05;;;;;;;;;;5063582;28;20472;-51
2021/10/26 16:58:04;;;;;;;4.78;2.38;;;;;;;;;;5061004;28;20364;-51
2021/10/26 17:00:32;;;;;;;4.17;2.07;;;;;;;;;;5052419;28;20377;-52
2021/10/26 17:03:03;;;;;;;4.50;2.05;;;;;;;;;;5048772;28;20459;-54
2021/10/26 17:05:32;;;;;;;4.60;2.10;;;;;;;;;;5054173;28;20476;-51
2021/10/26 17:07:58;;;;;;;5.22;2.05;;;;;;;;;;5057093;28;20378;-54
2021/10/26 17:10:24;;;;;;;3.80;1.93;;;;;;;;;;5063661;28;20444;-52
2021/10/26 17:12:50;;;;;;;4.03;2.13;;;;;;;;;;5062252;28;20387;-51
2021/10/26 17:15:24;;;;;;;4.00;2.00;;;;;;;;;;5050007;28;20419;-51
2021/10/26 17:17:51;;;;;;;4.47;2.07;;;;;;;;;;5050518;28;20370;-51
2021/10/26 17:20:17;;;;;;;3.28;1.90;;;;;;;;;;5069848;28;20386;-52
2021/10/26 17:22:44;;;;;;;4.57;2.10;;;;;;;;;;5055042;28;20381;-50
2021/10/26 17:25:10;;;;;;;4.20;2.10;;;;;;;;;;5058096;28;20820;-52
2021/10/26 17:27:39;;;;;;;4.78;2.40;;;;;;;;;;5056271;28;20869;-53
2021/10/26 17:30:05;;;;;;;4.05;2.50;;;;;;;;;;5061008;28;20389;-51
2021/10/26 17:32:32;;;;;;;4.53;2.40;;;;;;;;;;5051629;28;20404;-50
2021/10/26 17:34:59;;;;;;;3.95;2.30;;;;;;;;;;5056436;28;20397;-50
2021/10/26 17:37:25;;;;;;;4.38;2.50;;;;;;;;;;5056374;28;20378;-54
2021/10/26 17:39:51;;;;;;;6.57;3.65;;;;;;;;;;5061931;28;20402;-51
2021/10/26 17:42:20;;;;;;;4.20;2.50;;;;;;;;;;5055826;28;20833;-52
2021/10/26 17:44:47;;;;;;;4.90;2.60;;;;;;;;;;5048992;28;20413;-50
2021/10/26 17:47:13;;;;;;;4.43;2.58;;;;;;;;;;5050672;28;20452;-51
2021/10/26 17:49:42;;;;;;;5.20;2.85;;;;;;;;;;5061523;28;20866;-51
2021/10/26 17:52:08;;;;;;;5.30;2.97;;;;;;;;;;5062290;28;20372;-51
2021/10/26 17:54:37;;;;;;;3.97;2.53;;;;;;;;;;5058188;28;20443;-50
2021/10/26 17:57:03;;;;;;;4.85;2.78;;;;;;;;;;5055788;28;20380;-52
2021/10/26 17:59:29;;;;;;;6.75;3.22;;;;;;;;;;5059786;28;20404;-53
2021/10/26 18:01:57;;;;;;;5.80;3.08;;;;;;;;;;5062207;28;20385;-53
2021/10/26 18:04:23;;;;;;;5.28;2.95;;;;;;;;;;5045108;28;20480;-52
2021/10/26 18:06:51;;;;;;;5.55;2.70;;;;;;;;;;5062094;28;20405;-51
2021/10/26 18:09:17;;;;;;;5.28;2.83;;;;;;;;;;5041596;28;20395;-51
2021/10/26 18:11:44;;;;;;;4.50;2.78;;;;;;;;;;5055043;28;20880;-54
2021/10/26 18:14:12;;;;;;;5.22;2.70;;;;;;;;;;5057607;28;20491;-52
2021/10/26 18:16:38;;;;;;;5.15;2.72;;;;;;;;;;5061828;28;20699;-52
2021/10/26 18:19:04;;;;;;;6.40;2.60;;;;;;;;;;5060110;28;20816;-53
2021/10/26 18:21:31;;;;;;;4.88;2.88;;;;;;;;;;5055499;28;20718;-53
2021/10/26 18:23:58;;;;;;;5.38;2.80;;;;;;;;;;5069027;28;20368;-51
2021/10/26 18:26:24;;;;;;;4.70;2.50;;;;;;;;;;5055538;28;20475;-51
2021/10/26 18:28:55;;;;;;;5.63;3.00;;;;;;;;;;5057285;28;20373;-51
2021/10/26 18:31:25;;;;;;;4.60;2.70;;;;;;;;;;5058597;28;20379;-53
2021/10/26 18:33:51;;;;;;;5.03;2.67;;;;;;;;;;5021390;28;20492;-50
2021/10/26 18:36:17;;;;;;;4.00;2.70;;;;;;;;;;5052601;28;20386;-52
2021/10/26 18:38:47;;;;;;;5.63;2.80;;;;;;;;;;5065479;28;20511;-43
2021/10/26 18:41:19;;;;;;;4.63;2.80;;;;;;;;;;5045896;28;20404;-44
2021/10/26 18:43:49;;;;;;;5.43;3.20;;;;;;;;;;5060664;28;20812;-43
2021/10/26 18:46:25;;;;;;;9.82;7.22;;;;;;;;;;5035427;28;20429;-47
2021/10/26 18:48:53;;;;;;;8.02;5.10;;;;;;;;;;5060912;28;20386;-47
2021/10/26 18:51:21;;;;;;;5.80;3.70;;;;;;;;;;5056228;28;20368;-47
2021/10/26 18:53:47;;;;;;;8.18;4.72;;;;;;;;;;5047213;28;20406;-48
2021/10/26 18:56:14;;;;;;;6.60;4.05;;;;;;;;;;5039276;28;20393;-47
2021/10/26 18:58:41;;;;;;;6.80;3.47;;;;;;;;;;5026917;28;20487;-47
2021/10/26 19:01:07;;;;;;;5.97;3.20;;;;;;;;;;5064134;28;20388;-49
2021/10/26 19:03:37;;;;;;;5.88;3.22;;;;;;;;;;5063498;28;20389;-47
2021/10/26 19:06:11;;;;;;;5.53;3.42;;;;;;;;;;5071598;28;20461;-50
2021/10/26 19:08:41;;;;;;;5.97;3.20;;;;;;;;;;5071804;28;20409;-49
2021/10/26 19:11:11;;;;;;;5.30;3.10;;;;;;;;;;5069621;28;20371;-50
2021/10/26 19:13:45;;;;;;;5.88;2.97;;;;;;;;;;5050907;28;20394;-51
2021/10/26 19:16:15;;;;;;;4.82;2.70;;;;;;;;;;5066336;28;20413;-49
2021/10/26 19:18:42;;;;;;;6.00;2.78;;;;;;;;;;5066885;28;20378;-47
2021/10/26 19:21:10;;;;;;;5.05;2.88;;;;;;;;;;5067084;28;20391;-46
2021/10/26 19:23:39;;;;;;;6.50;2.85;;;;;;;;;;5065840;28;20386;-47
2021/10/26 19:26:06;;;;;;;5.20;2.60;;;;;;;;;;5067276;28;20499;-46
2021/10/26 19:28:33;;;;;;;5.85;2.80;;;;;;;;;;5055284;28;20377;-46
2021/10/26 19:31:06;;;;;;;4.82;2.40;;;;;;;;;;5067309;28;20368;-47
2021/10/26 19:33:38;;;;;;;4.55;2.53;;;;;;;;;;5064651;28;20720;-47
2021/10/26 19:36:11;;;;;;;4.75;2.20;;;;;;;;;;5067644;28;20757;-47
2021/10/26 19:38:38;;;;;;;4.70;2.30;;;;;;;;;;5061418;28;20476;-47
2021/10/26 19:41:06;;;;;;;5.10;2.50;;;;;;;;;;5073036;28;20373;-47
2021/10/26 19:43:32;;;;;;;4.73;2.40;;;;;;;;;;5085612;28;20397;-48
2021/10/26 19:45:58;;;;;;;4.63;2.20;;;;;;;;;;5065235;28;20414;-47
2021/10/26 19:48:25;;;;;;;4.70;2.33;;;;;;;;;;5079444;28;20370;-48
2021/10/26 19:50:51;;;;;;;5.72;2.90;;;;;;;;;;5069126;28;20458;-47
2021/10/26 19:53:17;;;;;;;5.35;2.95;;;;;;;;;;5067543;28;20401;-47
2021/10/26 19:55:44;;;;;;;4.65;2.70;;;;;;;;;;5055936;28;20495;-47
2021/10/26 19:58:11;;;;;;;4.97;2.60;;;;;;;;;;5051354;28;20484;-47
2021/10/26 20:00:39;;;;;;;6.00;2.60;;;;;;;;;;5058233;28;20412;-46
2021/10/26 20:03:09;;;;;;;4.25;2.17;;;;;;;;;;5052779;28;20895;-47
2021/10/26 20:05:36;;;;;;;5.40;2.70;;;;;;;;;;5060124;28;20399;-54
2021/10/26 20:08:03;;;;;;;8.20;2.78;;;;;;;;;;5061010;28;20372;-50
2021/10/26 20:10:29;;;;;;;6.93;2.70;;;;;;;;;;5080762;28;20368;-52
2021/10/26 20:12:59;;;;;;;5.55;2.50;;;;;;;;;;5046274;28;20413;-50
2021/10/26 20:15:28;;;;;;;6.10;2.50;;;;;;;;;;5067418;28;20713;-52
2021/10/26 20:17:55;;;;;;;4.25;2.28;;;;;;;;;;5066375;28;20740;-49
2021/10/26 20:20:34;;;;;;;6.00;2.47;;;;;;;;;;5067305;28;20368;-50
2021/10/26 20:23:24;;;;;;;4.40;2.35;;;;;;;;;;5081064;28;20378;-51
2021/10/26 20:25:54;;;;;;;6.70;2.30;;;;;;;;;;5060005;28;20510;-53
2021/10/26 20:28:32;;;;;;;4.57;2.20;;;;;;;;;;5068150;28;20404;-49
2021/10/26 20:30:59;;;;;;;5.63;2.38;;;;;;;;;;5066653;28;20433;-52
2021/10/26 20:33:27;;;;;;;4.88;2.20;;;;;;;;;;5060713;28;20479;-52
2021/10/26 20:35:57;;;;;;;5.55;2.28;;;;;;;;;;5069602;28;20402;-52
